Time;durP1;ratioP1;P1;durP2;ratioP2;P2;SDS_P1;SDS_P2;PMS_P1;PMS_P2;Temp;Humidity;BMP_temperature;BMP_pressure;BME280_temperature;BME280_humidity;BME280_pressure;Samples;Min_cycle;Max_cycle;Signal;HPM_P1;HPM_P2
2023/07/19 00:00:36;;;;;;;5.32;2.28;;;15.80;99.90;;;;;;5135810;27;20049;-69
2023/07/19 00:03:02;;;;;;;5.30;2.40;;;15.60;99.90;;;;;;5134265;27;20042;-69
2023/07/19 00:05:29;;;;;;;6.63;2.60;;;15.70;99.90;;;;;;5114598;27;20046;-69
2023/07/19 00:07:54;;;;;;;5.72;2.47;;;15.90;99.90;;;;;;5117042;27;20171;-69
2023/07/19 00:10:20;;;;;;;4.32;2.75;;;15.80;99.90;;;;;;5134570;27;20125;-69
2023/07/19 00:12:46;;;;;;;7.70;3.10;;;15.60;99.90;;;;;;5134025;27;20046;-69
2023/07/19 00:15:11;;;;;;;5.95;2.47;;;15.60;99.90;;;;;;5134651;27;20059;-69
2023/07/19 00:17:37;;;;;;;5.68;2.30;;;15.60;99.90;;;;;;5134254;27;20444;-69
2023/07/19 00:20:04;;;;;;;6.00;2.45;;;15.30;99.90;;;;;;5133937;27;20129;-69
2023/07/19 00:22:31;;;;;;;4.95;2.30;;;15.50;99.90;;;;;;5114087;27;20463;-69
2023/07/19 00:24:57;;;;;;;4.28;2.35;;;15.60;99.90;;;;;;5113103;27;20050;-69
2023/07/19 00:27:22;;;;;;;5.82;2.42;;;15.30;99.90;;;;;;5133883;27;20038;-69
2023/07/19 00:29:48;;;;;;;6.25;2.20;;;15.20;99.90;;;;;;5133889;27;20042;-69
2023/07/19 00:32:14;;;;;;;5.60;2.50;;;15.40;99.90;;;;;;5114501;27;20129;-70
2023/07/19 00:34:39;;;;;;;6.20;2.22;;;15.20;99.90;;;;;;5132998;27;20047;-69
2023/07/19 00:37:05;;;;;;;4.70;2.17;;;15.20;99.90;;;;;;5133579;27;20049;-69
2023/07/19 00:39:31;;;;;;;4.40;2.08;;;15.20;99.90;;;;;;5133719;27;20050;-70
2023/07/19 00:41:57;;;;;;;5.53;1.95;;;15.20;99.90;;;;;;5132542;27;20133;-69
2023/07/19 00:44:23;;;;;;;4.95;2.00;;;15.30;99.90;;;;;;5115312;27;20266;-69
2023/07/19 00:46:49;;;;;;;4.10;1.80;;;15.40;99.90;;;;;;5134234;27;20545;-69
2023/07/19 00:49:15;;;;;;;5.03;2.13;;;15.30;99.90;;;;;;5135501;27;20054;-69
2023/07/19 00:51:41;;;;;;;4.78;2.10;;;15.20;99.90;;;;;;5133532;27;20113;-69
2023/07/19 00:54:08;;;;;;;5.07;2.30;;;15.30;99.90;;;;;;5133391;27;20185;-69
2023/07/19 00:56:33;;;;;;;4.10;2.08;;;15.20;99.90;;;;;;5134250;27;20073;-69
2023/07/19 00:59:02;;;;;;;7.88;2.15;;;15.20;99.90;;;;;;5113809;27;20118;-69
2023/07/19 01:01:27;;;;;;;8.93;2.47;;;15.10;99.90;;;;;;5132556;27;20043;-69
2023/07/19 01:03:53;;;;;;;7.38;2.50;;;15.10;99.90;;;;;;5134553;27;20110;-69
2023/07/19 01:06:19;;;;;;;6.30;2.75;;;15.30;99.90;;;;;;5110565;27;20035;-69
2023/07/19 01:08:49;;;;;;;6.28;2.42;;;15.20;99.90;;;;;;5132737;27;20031;-69
2023/07/19 01:11:15;;;;;;;8.38;2.60;;;15.30;99.90;;;;;;5114801;27;20403;-69
2023/07/19 01:13:56;;;;;;;5.22;2.65;;;15.30;99.90;;;;;;5131767;27;20058;-69
2023/07/19 01:16:22;;;;;;;4.68;2.28;;;15.30;99.90;;;;;;5135295;27;20051;-69
2023/07/19 01:18:49;;;;;;;3.78;2.00;;;15.20;99.90;;;;;;5132777;27;20050;-69
2023/07/19 01:21:15;;;;;;;4.68;2.38;;;15.10;99.90;;;;;;5133492;27;20043;-69
2023/07/19 01:23:41;;;;;;;4.95;2.42;;;15.10;99.90;;;;;;5132581;27;20507;-69
2023/07/19 01:26:07;;;;;;;6.88;2.78;;;15.20;99.90;;;;;;5095126;27;20054;-69
2023/07/19 01:28:33;;;;;;;5.15;2.50;;;15.30;99.90;;;;;;5132180;27;20530;-69
2023/07/19 01:31:03;;;;;;;4.50;2.42;;;15.40;99.90;;;;;;5131766;27;20884;-69
2023/07/19 01:33:29;;;;;;;5.47;2.90;;;15.10;99.90;;;;;;5131353;27;20050;-69
2023/07/19 01:35:55;;;;;;;6.50;2.83;;;15.10;99.90;;;;;;5132108;27;20039;-67
2023/07/19 01:38:21;;;;;;;6.45;2.85;;;15.20;99.90;;;;;;5133218;27;20444;-69
2023/07/19 01:40:47;;;;;;;5.68;2.70;;;15.30;99.90;;;;;;5095021;27;20089;-69
2023/07/19 01:43:13;;;;;;;4.28;2.60;;;15.30;99.90;;;;;;5131732;27;20590;-70
2023/07/19 01:45:39;;;;;;;6.55;3.00;;;15.20;99.90;;;;;;5114588;27;20460;-70
2023/07/19 01:48:05;;;;;;;5.18;2.95;;;15.20;99.90;;;;;;5097604;27;20409;-70
2023/07/19 01:50:30;;;;;;;4.75;2.90;;;15.20;99.90;;;;;;5132553;27;20133;-70
2023/07/19 01:52:56;;;;;;;7.78;3.10;;;15.10;99.90;;;;;;5112214;27;20411;-70
2023/07/19 01:55:22;;;;;;;4.50;2.97;;;15.00;99.90;;;;;;5133111;27;20380;-70
2023/07/19 01:57:48;;;;;;;6.50;3.35;;;15.10;99.90;;;;;;5111060;27;20534;-70
2023/07/19 02:00:14;;;;;;;7.38;3.08;;;15.10;99.90;;;;;;5112322;27;20065;-69
2023/07/19 02:02:40;;;;;;;8.95;3.55;;;15.20;99.90;;;;;;5132259;27;20030;-69
2023/07/19 02:05:06;;;;;;;6.53;3.40;;;15.30;99.90;;;;;;5132449;27;20050;-70
2023/07/19 02:07:32;;;;;;;6.93;3.40;;;15.10;99.90;;;;;;5132084;27;20705;-70
2023/07/19 02:09:58;;;;;;;5.25;3.50;;;15.00;99.90;;;;;;5113609;27;20448;-69
2023/07/19 02:12:24;;;;;;;6.55;3.92;;;15.10;99.90;;;;;;5131840;27;20051;-70
2023/07/19 02:14:49;;;;;;;5.05;3.28;;;15.00;99.90;;;;;;5132622;27;20042;-70
2023/07/19 02:17:15;;;;;;;8.73;4.40;;;15.20;99.90;;;;;;5133537;27;20531;-70
2023/07/19 02:19:41;;;;;;;6.43;3.67;;;15.10;99.90;;;;;;5131375;27;20298;-70
2023/07/19 02:22:07;;;;;;;7.88;3.75;;;15.00;99.90;;;;;;5132880;27;20129;-70
2023/07/19 02:24:33;;;;;;;7.35;4.18;;;15.00;99.90;;;;;;5132758;27;20045;-70
2023/07/19 02:26:58;;;;;;;6.55;4.07;;;15.20;99.90;;;;;;5113469;27;20042;-70
2023/07/19 02:29:25;;;;;;;7.20;5.43;;;15.00;99.90;;;;;;5135192;27;20057;-70
2023/07/19 02:31:52;;;;;;;8.60;4.13;;;15.10;99.90;;;;;;5133581;27;20043;-70
2023/07/19 02:34:20;;;;;;;7.57;4.47;;;15.00;99.90;;;;;;5106262;27;20035;-69
2023/07/19 02:36:49;;;;;;;12.88;5.53;;;14.90;99.90;;;;;;5112276;27;20039;-69
2023/07/19 02:39:14;;;;;;;9.93;5.95;;;14.90;99.90;;;;;;5133061;27;20121;-70
2023/07/19 02:41:40;;;;;;;7.65;4.63;;;15.00;99.90;;;;;;5113847;27;20106;-70
2023/07/19 02:44:06;;;;;;;10.02;5.45;;;14.80;99.90;;;;;;5108739;27;20042;-70
2023/07/19 02:46:31;;;;;;;7.03;5.20;;;14.80;99.90;;;;;;5132384;27;20035;-70
2023/07/19 02:48:57;;;;;;;9.00;4.53;;;15.00;99.90;;;;;;5111597;27;20669;-70
2023/07/19 02:51:23;;;;;;;7.20;4.47;;;15.00;99.90;;;;;;5129947;27;20364;-70
2023/07/19 02:53:49;;;;;;;8.60;4.72;;;14.90;99.90;;;;;;5131992;27;21125;-70
2023/07/19 02:56:14;;;;;;;7.28;5.00;;;14.90;99.90;;;;;;5131019;27;20087;-71
2023/07/19 02:58:40;;;;;;;7.60;5.05;;;15.00;99.90;;;;;;5110702;27;20459;-70
2023/07/19 03:01:06;;;;;;;7.95;5.70;;;14.90;99.90;;;;;;5130614;27;20384;-70
2023/07/19 03:03:32;;;;;;;8.95;5.85;;;14.90;99.90;;;;;;5131608;27;20038;-71
2023/07/19 03:05:57;;;;;;;8.07;5.45;;;14.80;99.90;;;;;;5111515;27;20103;-70
2023/07/19 03:08:23;;;;;;;9.98;5.38;;;15.00;99.90;;;;;;5129897;27;20093;-70
2023/07/19 03:10:55;;;;;;;8.13;6.22;;;15.00;99.90;;;;;;5130060;27;20134;-70
2023/07/19 03:13:21;;;;;;;8.10;7.30;;;14.90;99.90;;;;;;5130077;27;20801;-69
2023/07/19 03:15:47;;;;;;;12.63;7.35;;;14.80;99.90;;;;;;5130990;27;20035;-70
2023/07/19 03:18:13;;;;;;;9.93;6.05;;;14.80;99.90;;;;;;5112310;27;21063;-70
2023/07/19 03:20:38;;;;;;;8.45;6.07;;;14.90;99.90;;;;;;5129715;27;20061;-70
2023/07/19 03:23:04;;;;;;;9.25;6.90;;;14.80;99.90;;;;;;5131113;27;20053;-70
2023/07/19 03:25:30;;;;;;;12.48;7.00;;;14.80;99.90;;;;;;5131186;27;20070;-70
2023/07/19 03:27:56;;;;;;;9.00;6.75;;;14.80;99.90;;;;;;5130560;27;20035;-70
2023/07/19 03:30:22;;;;;;;8.70;6.88;;;15.00;99.90;;;;;;5131236;27;20415;-70
2023/07/19 03:32:48;;;;;;;9.38;7.20;;;14.90;99.90;;;;;;5130419;27;20034;-71
2023/07/19 03:35:14;;;;;;;11.68;7.38;;;14.90;99.90;;;;;;5130190;27;20250;-70
2023/07/19 03:37:44;;;;;;;11.00;6.53;;;15.00;99.90;;;;;;5113543;27;20030;-70
2023/07/19 03:40:14;;;;;;;7.78;6.43;;;14.90;99.90;;;;;;5131157;27;20053;-70
2023/07/19 03:42:40;;;;;;;10.68;6.90;;;14.90;99.90;;;;;;5131835;27;20080;-70
2023/07/19 03:45:07;;;;;;;8.55;7.25;;;15.00;99.90;;;;;;5130467;27;20073;-70
2023/07/19 03:47:33;;;;;;;10.85;7.45;;;14.80;99.90;;;;;;5132842;27;20069;-70
2023/07/19 03:49:59;;;;;;;9.77;7.40;;;14.80;99.90;;;;;;5129621;27;20712;-70
2023/07/19 03:52:25;;;;;;;11.23;7.88;;;14.70;99.90;;;;;;5132682;27;20045;-69
2023/07/19 03:54:50;;;;;;;9.68;7.30;;;14.70;99.90;;;;;;5111169;27;20130;-70
2023/07/19 03:57:17;;;;;;;7.72;6.38;;;14.80;99.90;;;;;;5131691;27;20126;-70
2023/07/19 03:59:42;;;;;;;10.18;7.72;;;14.80;99.90;;;;;;5110078;27;20065;-70
2023/07/19 04:02:08;;;;;;;9.15;7.55;;;14.90;99.90;;;;;;5116485;27;20379;-69
2023/07/19 04:04:34;;;;;;;15.43;9.35;;;14.80;99.90;;;;;;5133428;27;20514;-70
2023/07/19 04:07:00;;;;;;;10.93;7.50;;;15.00;99.90;;;;;;5132917;27;20436;-69
2023/07/19 04:09:25;;;;;;;11.38;8.27;;;14.80;99.90;;;;;;5134324;27;20035;-69
2023/07/19 04:11:51;;;;;;;11.27;8.13;;;15.00;99.90;;;;;;5132656;27;20577;-70
2023/07/19 04:14:17;;;;;;;11.90;8.10;;;14.80;99.90;;;;;;5132991;27;20046;-69
2023/07/19 04:16:44;;;;;;;10.05;8.20;;;15.00;99.90;;;;;;5135915;27;20301;-69
2023/07/19 04:19:10;;;;;;;12.95;8.70;;;15.10;99.90;;;;;;5115527;27;20065;-69
2023/07/19 04:21:36;;;;;;;11.95;8.40;;;15.20;99.90;;;;;;5133255;27;20129;-69
2023/07/19 04:24:01;;;;;;;11.35;8.30;;;15.20;99.90;;;;;;5132087;27;20091;-69
2023/07/19 04:26:27;;;;;;;12.02;8.88;;;15.20;99.90;;;;;;5134788;27;20045;-69
2023/07/19 04:28:53;;;;;;;12.57;8.10;;;15.20;99.90;;;;;;5133680;27;20043;-69
2023/07/19 04:31:19;;;;;;;19.10;9.85;;;15.20;99.90;;;;;;5132889;27;20193;-69
2023/07/19 04:33:45;;;;;;;11.07;8.48;;;15.00;99.90;;;;;;5131970;27;20515;-68
2023/07/19 04:36:15;;;;;;;13.23;8.38;;;15.30;99.90;;;;;;5116124;27;20034;-69
2023/07/19 04:38:41;;;;;;;12.93;8.88;;;15.30;99.90;;;;;;5133669;27;20079;-69
2023/07/19 04:41:08;;;;;;;10.57;8.13;;;15.20;99.90;;;;;;5133959;27;20049;-69
2023/07/19 04:43:34;;;;;;;13.40;8.13;;;15.30;99.90;;;;;;5133627;27;20030;-69
2023/07/19 04:46:00;;;;;;;10.98;8.40;;;15.30;99.90;;;;;;5134595;27;20407;-69
2023/07/19 04:48:25;;;;;;;12.68;9.20;;;15.30;99.90;;;;;;5135143;27;20053;-69
2023/07/19 04:50:55;;;;;;;12.00;8.52;;;15.30;99.90;;;;;;5134015;27;20042;-68
2023/07/19 04:53:21;;;;;;;12.00;8.38;;;15.40;99.90;;;;;;5134665;27;20525;-68
2023/07/19 04:55:50;;;;;;;13.00;7.75;;;15.30;99.90;;;;;;5134637;27;20122;-69
2023/07/19 04:58:16;;;;;;;13.48;8.30;;;15.40;99.90;;;;;;5134369;27;20074;-68
2023/07/19 05:00:42;;;;;;;10.93;7.72;;;15.40;99.90;;;;;;5134431;27;20103;-69
2023/07/19 05:03:07;;;;;;;12.27;8.68;;;15.50;99.90;;;;;;5132374;27;20495;-69
2023/07/19 05:05:33;;;;;;;11.77;7.53;;;15.70;99.90;;;;;;5133619;27;20051;-69
2023/07/19 05:07:59;;;;;;;7.63;6.30;;;15.50;99.90;;;;;;5134964;27;20518;-69
2023/07/19 05:10:25;;;;;;;11.43;7.50;;;15.70;99.90;;;;;;5111423;27;20038;-70
2023/07/19 05:12:51;;;;;;;10.48;6.78;;;15.50;99.90;;;;;;5132709;27;20034;-70
2023/07/19 05:15:17;;;;;;;8.77;6.50;;;15.70;99.90;;;;;;5114867;27;20076;-69
2023/07/19 05:17:43;;;;;;;9.45;5.97;;;15.70;99.90;;;;;;5134588;27;20129;-69
2023/07/19 05:20:09;;;;;;;9.48;5.90;;;15.70;99.90;;;;;;5132367;27;20050;-69
2023/07/19 05:22:35;;;;;;;13.50;7.90;;;15.70;99.90;;;;;;5132058;27;20043;-69
2023/07/19 05:25:03;;;;;;;11.20;6.65;;;15.80;99.90;;;;;;5132364;27;20058;-69
2023/07/19 05:27:29;;;;;;;9.18;6.30;;;15.80;99.90;;;;;;5132237;27;20041;-69
2023/07/19 05:29:54;;;;;;;12.60;6.00;;;15.80;99.90;;;;;;5113612;27;20046;-68
2023/07/19 05:32:20;;;;;;;9.95;6.22;;;15.80;99.90;;;;;;5133531;27;20534;-69
2023/07/19 05:34:46;;;;;;;9.32;6.13;;;15.90;99.90;;;;;;5112781;27;20042;-69
2023/07/19 05:37:12;;;;;;;11.00;5.40;;;15.90;99.90;;;;;;5113615;27;20107;-70
2023/07/19 05:39:38;;;;;;;10.05;5.85;;;16.00;99.90;;;;;;5111972;27;20043;-71
2023/07/19 05:42:04;;;;;;;7.15;4.90;;;16.00;99.90;;;;;;5112786;27;20394;-72
2023/07/19 05:44:30;;;;;;;10.63;6.40;;;14.50;99.90;;;;;;5111747;27;20133;-72
2023/07/19 05:46:56;;;;;;;9.05;5.28;;;16.10;99.90;;;;;;5113328;27;20053;-71
2023/07/19 05:49:22;;;;;;;9.32;5.50;;;16.10;99.90;;;;;;5093379;27;20046;-72
2023/07/19 05:51:48;;;;;;;9.02;5.25;;;16.00;99.90;;;;;;5114520;27;20043;-71
2023/07/19 05:54:14;;;;;;;7.72;4.78;;;15.90;99.90;;;;;;5113141;27;20042;-71
2023/07/19 05:56:40;;;;;;;9.38;5.15;;;16.30;99.90;;;;;;5131338;27;20066;-71
2023/07/19 05:59:05;;;;;;;10.52;4.28;;;16.00;99.90;;;;;;5113964;27;20483;-71
2023/07/19 06:01:31;;;;;;;8.27;3.78;;;15.90;99.90;;;;;;5095976;27;20081;-71
2023/07/19 06:03:57;;;;;;;9.27;3.70;;;16.00;99.90;;;;;;5097153;27;20309;-71
2023/07/19 06:06:25;;;;;;;10.25;4.05;;;15.90;99.90;;;;;;5114474;27;20547;-71
2023/07/19 06:08:50;;;;;;;8.55;4.22;;;16.10;99.90;;;;;;5094511;27;20034;-72
2023/07/19 06:11:16;;;;;;;9.90;2.85;;;16.00;99.90;;;;;;5092140;27;20047;-71
2023/07/19 06:13:42;;;;;;;8.05;2.97;;;16.00;99.90;;;;;;5093882;27;20495;-71
2023/07/19 06:16:08;;;;;;;8.45;2.25;;;18.00;99.90;;;;;;5112947;27;20035;-71
2023/07/19 06:18:33;;;;;;;8.77;2.50;;;16.10;99.90;;;;;;5114962;27;20506;-70
2023/07/19 06:20:59;;;;;;;5.22;2.15;;;16.00;99.90;;;;;;5095325;27;20339;-70
2023/07/19 06:23:25;;;;;;;6.97;1.83;;;16.10;99.90;;;;;;5113183;27;20460;-71
2023/07/19 06:25:51;;;;;;;5.38;1.60;;;16.10;99.90;;;;;;5112102;27;20053;-71
2023/07/19 06:28:17;;;;;;;5.45;2.22;;;16.20;99.90;;;;;;5112585;27;20042;-70
2023/07/19 06:30:42;;;;;;;4.43;1.73;;;16.10;99.90;;;;;;5113615;27;20099;-71
2023/07/19 06:33:09;;;;;;;7.35;1.90;;;16.20;99.90;;;;;;5111063;27;20046;-71
2023/07/19 06:35:34;;;;;;;6.00;1.60;;;16.30;99.90;;;;;;5111945;27;20468;-70
2023/07/19 06:38:00;;;;;;;4.18;1.70;;;16.10;99.90;;;;;;5113945;27;20053;-71
2023/07/19 06:40:26;;;;;;;5.85;1.63;;;16.20;99.90;;;;;;5130742;27;20058;-70
2023/07/19 06:42:52;;;;;;;6.60;1.92;;;16.10;99.90;;;;;;5111377;27;20066;-70
2023/07/19 06:45:19;;;;;;;5.00;1.77;;;16.20;99.90;;;;;;5111362;27;20054;-70
2023/07/19 06:47:45;;;;;;;6.80;2.10;;;16.30;99.90;;;;;;5131918;27;20055;-71
2023/07/19 06:50:11;;;;;;;5.38;1.83;;;16.50;99.90;;;;;;5111144;27;20039;-71
2023/07/19 06:52:37;;;;;;;4.07;1.83;;;16.40;99.90;;;;;;5111667;27;20049;-70
2023/07/19 06:55:04;;;;;;;6.65;2.13;;;16.40;99.90;;;;;;5092072;27;20042;-71
2023/07/19 06:57:31;;;;;;;7.68;2.42;;;16.50;99.90;;;;;;5110836;27;20053;-70
2023/07/19 06:59:57;;;;;;;6.13;2.78;;;16.60;99.90;;;;;;5111786;27;20039;-70
2023/07/19 07:02:23;;;;;;;5.85;1.90;;;16.80;99.90;;;;;;5128657;27;20129;-69
2023/07/19 07:04:52;;;;;;;5.32;1.95;;;16.90;99.90;;;;;;5130330;27;20229;-69
2023/07/19 07:07:19;;;;;;;4.03;1.95;;;16.90;99.90;;;;;;5129394;27;20468;-68
2023/07/19 07:09:48;;;;;;;8.18;2.00;;;17.10;99.90;;;;;;5130689;27;20591;-68
2023/07/19 07:12:14;;;;;;;6.35;2.20;;;17.10;99.90;;;;;;5111714;27;20050;-68
2023/07/19 07:14:40;;;;;;;5.85;2.15;;;17.00;99.90;;;;;;5112994;27;20425;-69
2023/07/19 07:17:06;;;;;;;6.63;2.17;;;17.00;99.90;;;;;;5128450;27;20038;-68
2023/07/19 07:19:32;;;;;;;8.50;2.72;;;17.00;99.90;;;;;;5106370;27;20050;-69
2023/07/19 07:21:59;;;;;;;5.88;2.20;;;17.10;99.90;;;;;;5130210;27;21985;-69
2023/07/19 07:24:24;;;;;;;6.55;2.20;;;17.20;99.90;;;;;;5112361;27;20041;-69
2023/07/19 07:26:50;;;;;;;4.70;2.03;;;17.40;99.90;;;;;;5107034;27;20046;-68
2023/07/19 07:29:16;;;;;;;7.22;2.05;;;17.30;99.90;;;;;;5130805;27;20035;-68
2023/07/19 07:31:42;;;;;;;7.55;2.22;;;17.50;99.90;;;;;;5129930;27;20158;-69
2023/07/19 07:34:09;;;;;;;4.10;2.00;;;17.30;99.90;;;;;;5131915;27;20077;-68
2023/07/19 07:36:35;;;;;;;5.20;2.10;;;17.50;99.90;;;;;;5134308;27;20460;-69
2023/07/19 07:39:01;;;;;;;5.53;2.00;;;17.50;99.90;;;;;;5115366;27;20455;-69
2023/07/19 07:41:27;;;;;;;6.70;2.30;;;17.50;99.90;;;;;;5135172;27;20134;-69
2023/07/19 07:43:52;;;;;;;7.80;2.38;;;17.40;99.90;;;;;;5115146;27;20043;-68
2023/07/19 07:46:18;;;;;;;5.10;1.73;;;15.40;99.90;;;;;;5132739;27;20039;-69
2023/07/19 07:48:44;;;;;;;9.13;2.25;;;17.70;99.90;;;;;;5112844;27;20758;-69
2023/07/19 07:51:11;;;;;;;5.40;1.70;;;17.60;99.90;;;;;;5112872;27;20054;-69
2023/07/19 07:53:36;;;;;;;4.93;1.67;;;19.20;99.90;;;;;;5111335;27;20054;-68
2023/07/19 07:56:02;;;;;;;3.92;1.40;;;18.40;99.90;;;;;;5110573;27;20034;-64
2023/07/19 07:58:28;;;;;;;4.82;1.63;;;19.30;99.90;;;;;;5113214;27;20134;-65
2023/07/19 08:00:54;;;;;;;3.85;1.63;;;19.50;99.90;;;;;;5115497;27;20039;-57
2023/07/19 08:03:20;;;;;;;5.70;1.65;;;19.90;99.90;;;;;;5113828;27;20126;-58
2023/07/19 08:05:45;;;;;;;4.22;1.52;;;20.40;99.90;;;;;;5113027;27;20049;-58
2023/07/19 08:08:11;;;;;;;4.82;1.60;;;20.80;99.90;;;;;;5112592;27;20036;-58
2023/07/19 08:10:38;;;;;;;8.82;2.53;;;21.70;99.90;;;;;;5115060;27;20621;-58
2023/07/19 08:13:05;;;;;;;5.47;1.60;;;23.10;99.90;;;;;;5113484;27;20108;-59
2023/07/19 08:15:30;;;;;;;5.28;1.70;;;23.90;99.90;;;;;;5113178;27;20039;-57
2023/07/19 08:17:56;;;;;;;4.90;1.60;;;24.50;99.90;;;;;;5113223;27;20039;-58
2023/07/19 08:20:22;;;;;;;4.43;1.63;;;24.00;99.90;;;;;;5114301;27;20269;-59
2023/07/19 08:22:48;;;;;;;3.60;1.23;;;23.50;99.90;;;;;;5112816;27;20047;-59
2023/07/19 08:25:16;;;;;;;6.38;1.60;;;23.10;99.90;;;;;;5113759;27;20119;-58
2023/07/19 08:27:43;;;;;;;4.15;1.20;;;22.30;99.90;;;;;;5113997;27;20401;-58
2023/07/19 08:30:15;;;;;;;4.93;1.50;;;21.70;99.90;;;;;;5113970;27;20075;-58
2023/07/19 08:32:42;;;;;;;6.38;2.20;;;21.50;99.90;;;;;;5113966;27;20157;-58
2023/07/19 08:35:08;;;;;;;5.78;1.13;;;21.50;99.90;;;;;;5112698;27;20304;-58
2023/07/19 08:37:34;;;;;;;4.10;1.40;;;21.50;99.90;;;;;;5111997;27;20130;-58
2023/07/19 08:40:00;;;;;;;3.92;1.30;;;21.20;99.90;;;;;;5111916;27;20424;-58
2023/07/19 08:42:26;;;;;;;3.65;1.27;;;20.80;99.90;;;;;;5112918;27;20776;-58
2023/07/19 08:44:52;;;;;;;4.35;1.35;;;20.60;99.90;;;;;;5111302;27;20031;-58
2023/07/19 08:47:17;;;;;;;5.35;1.27;;;20.40;99.90;;;;;;5118003;27;20049;-59
2023/07/19 08:49:44;;;;;;;6.00;1.52;;;20.20;99.90;;;;;;5135030;27;20042;-57
2023/07/19 08:52:13;;;;;;;5.63;1.30;;;20.20;99.90;;;;;;5132786;27;20079;-58
2023/07/19 08:54:39;;;;;;;5.63;1.30;;;20.00;99.90;;;;;;5115075;27;20071;-58
2023/07/19 08:57:05;;;;;;;5.57;1.25;;;20.00;99.90;;;;;;5131569;27;20158;-57
2023/07/19 08:59:31;;;;;;;6.93;1.65;;;20.10;99.90;;;;;;5132268;27;20452;-58
2023/07/19 09:01:57;;;;;;;5.85;1.27;;;20.20;99.90;;;;;;5110130;27;20196;-58
2023/07/19 09:04:23;;;;;;;5.15;1.33;;;19.90;99.90;;;;;;5133241;27;20046;-58
2023/07/19 09:06:49;;;;;;;4.25;1.42;;;20.00;99.90;;;;;;5132231;27;20569;-58
2023/07/19 09:09:16;;;;;;;4.55;1.42;;;19.90;99.90;;;;;;5131963;27;20034;-59
2023/07/19 09:11:46;;;;;;;5.13;1.20;;;20.20;99.90;;;;;;5132481;27;20046;-58
2023/07/19 09:14:12;;;;;;;2.70;0.90;;;20.50;99.90;;;;;;5134075;27;20408;-58
2023/07/19 09:16:40;;;;;;;2.92;0.90;;;20.50;99.90;;;;;;5132512;27;20042;-58
2023/07/19 09:19:08;;;;;;;4.78;1.52;;;20.50;99.90;;;;;;5133011;27;20460;-58
2023/07/19 09:21:42;;;;;;;4.30;1.40;;;20.70;99.90;;;;;;5131275;27;20081;-58
2023/07/19 09:24:10;;;;;;;5.93;1.23;;;21.10;99.90;;;;;;5112979;27;20042;-58
2023/07/19 09:26:50;;;;;;;4.22;1.30;;;20.80;99.90;;;;;;5131856;27;20455;-58
2023/07/19 09:29:20;;;;;;;7.45;1.30;;;20.70;99.90;;;;;;5131498;27;20068;-58
2023/07/19 09:31:56;;;;;;;4.30;1.20;;;20.20;99.90;;;;;;5113058;27;20824;-58
2023/07/19 09:34:25;;;;;;;5.25;1.50;;;19.90;99.90;;;;;;5132866;27;20053;-62
2023/07/19 09:36:51;;;;;;;4.28;1.30;;;19.60;99.90;;;;;;5132032;27;20115;-59
2023/07/19 09:39:17;;;;;;;6.70;1.25;;;19.50;99.90;;;;;;5129626;27;20062;-59
2023/07/19 09:41:45;;;;;;;7.30;2.28;;;19.50;99.90;;;;;;5129583;27;20071;-58
2023/07/19 09:44:13;;;;;;;5.13;1.58;;;19.60;99.90;;;;;;5131705;27;20161;-59
2023/07/19 09:46:39;;;;;;;3.80;1.20;;;19.50;99.90;;;;;;5132472;27;20051;-58
2023/07/19 09:49:05;;;;;;;6.05;1.40;;;19.60;99.90;;;;;;5132346;27;20042;-58
2023/07/19 09:51:33;;;;;;;4.32;1.30;;;19.70;99.90;;;;;;5130510;27;20051;-58
2023/07/19 09:54:11;;;;;;;5.90;1.38;;;19.80;99.90;;;;;;5114021;27;20440;-57
2023/07/19 09:56:40;;;;;;;5.90;1.27;;;19.90;99.90;;;;;;5131266;27;20041;-60
2023/07/19 09:59:11;;;;;;;4.70;1.60;;;20.00;99.90;;;;;;5131529;27;20035;-58
2023/07/19 10:01:37;;;;;;;4.40;1.00;;;20.20;99.90;;;;;;5130876;27;20368;-58
2023/07/19 10:04:25;;;;;;;3.67;1.20;;;20.30;99.90;;;;;;5112118;27;20226;-58
2023/07/19 10:07:08;;;;;;;3.63;1.38;;;20.50;99.90;;;;;;5131955;27;20129;-58
2023/07/19 10:09:37;;;;;;;4.15;0.90;;;20.60;99.90;;;;;;5114063;27;20047;-58
2023/07/19 10:12:21;;;;;;;4.50;1.20;;;21.30;99.90;;;;;;5131251;27;20330;-58
2023/07/19 10:14:54;;;;;;;4.68;1.08;;;21.70;99.90;;;;;;5132729;27;20590;-62
2023/07/19 10:17:20;;;;;;;5.78;1.77;;;21.70;99.90;;;;;;5132712;27;20046;-58
2023/07/19 10:20:04;;;;;;;6.70;1.70;;;21.50;99.90;;;;;;5133588;27;20034;-58
2023/07/19 10:22:48;;;;;;;6.75;1.60;;;21.00;99.90;;;;;;5134747;27;20103;-58
2023/07/19 10:25:15;;;;;;;4.85;1.75;;;20.50;99.90;;;;;;5132278;27;20039;-58
2023/07/19 10:27:41;;;;;;;7.43;2.15;;;20.50;99.90;;;;;;5133087;27;20046;-58
2023/07/19 10:30:07;;;;;;;6.28;1.70;;;19.80;99.90;;;;;;5132069;27;20377;-57
2023/07/19 10:32:34;;;;;;;6.47;1.70;;;21.40;99.90;;;;;;5132748;27;20042;-58
2023/07/19 10:34:59;;;;;;;4.78;1.60;;;19.80;99.90;;;;;;5131114;27;20027;-58
2023/07/19 10:37:25;;;;;;;3.95;1.50;;;19.90;99.90;;;;;;5130832;27;20214;-58
2023/07/19 10:39:51;;;;;;;6.25;1.63;;;19.70;99.90;;;;;;5131563;27;20130;-58
2023/07/19 10:42:16;;;;;;;5.35;1.40;;;20.00;99.90;;;;;;5133966;27;20030;-55
2023/07/19 10:44:42;;;;;;;3.53;1.20;;;20.00;99.90;;;;;;5113339;27;20203;-53
2023/07/19 10:47:08;;;;;;;8.18;1.60;;;20.10;99.90;;;;;;5131918;27;20478;-53
2023/07/19 10:49:34;;;;;;;5.50;1.77;;;20.40;99.90;;;;;;5132319;27;20030;-53
2023/07/19 10:52:00;;;;;;;4.63;1.55;;;20.40;99.90;;;;;;5130837;27;20812;-54
2023/07/19 10:54:26;;;;;;;5.32;1.60;;;20.50;99.90;;;;;;5112940;27;20034;-55
2023/07/19 10:56:53;;;;;;;6.70;1.50;;;20.80;99.90;;;;;;5130947;27;20039;-57
2023/07/19 10:59:20;;;;;;;4.55;1.50;;;20.90;99.90;;;;;;5128544;27;20049;-53
2023/07/19 11:01:49;;;;;;;5.28;1.55;;;21.20;99.90;;;;;;5129073;27;20444;-55
2023/07/19 11:04:18;;;;;;;4.68;1.25;;;21.10;99.90;;;;;;5129849;27;20047;-56
2023/07/19 11:06:55;;;;;;;6.72;1.30;;;21.50;99.90;;;;;;5113195;27;20057;-54
2023/07/19 11:09:22;;;;;;;4.13;1.20;;;21.40;99.90;;;;;;5128229;27;20184;-54
2023/07/19 11:11:49;;;;;;;4.88;1.35;;;21.50;99.90;;;;;;5131078;27;20104;-56
2023/07/19 11:14:29;;;;;;;4.38;1.38;;;21.10;99.90;;;;;;5129959;27;20049;-56
2023/07/19 11:16:56;;;;;;;3.53;1.40;;;21.50;99.90;;;;;;5129382;27;20384;-55
2023/07/19 11:19:36;;;;;;;4.95;1.20;;;22.00;99.90;;;;;;5131826;27;20110;-55
2023/07/19 11:22:03;;;;;;;3.22;0.90;;;22.40;99.90;;;;;;5128414;27;20035;-55
2023/07/19 11:24:35;;;;;;;4.25;1.02;;;22.70;99.90;;;;;;5130766;27;20529;-55
2023/07/19 11:27:01;;;;;;;4.20;1.40;;;22.70;99.90;;;;;;5129565;27;20408;-55
2023/07/19 11:29:32;;;;;;;6.03;1.15;;;22.90;99.90;;;;;;5128689;27;20042;-54
2023/07/19 11:32:16;;;;;;;4.28;1.40;;;23.10;99.90;;;;;;5129920;27;20092;-53
2023/07/19 11:34:51;;;;;;;3.45;1.40;;;23.10;99.90;;;;;;5128248;27;20052;-55
2023/07/19 11:37:21;;;;;;;4.22;1.08;;;23.10;99.90;;;;;;5112522;27;20042;-54
2023/07/19 11:39:51;;;;;;;5.90;1.37;;;23.70;99.90;;;;;;5128939;27;20047;-55
2023/07/19 11:42:43;;;;;;;5.00;1.25;;;23.50;99.90;;;;;;5128741;27;20078;-55
2023/07/19 11:45:13;;;;;;;4.50;1.42;;;23.60;99.90;;;;;;5128984;27;20130;-56
2023/07/19 11:47:39;;;;;;;4.30;1.00;;;23.60;99.90;;;;;;5130702;27;20103;-55
2023/07/19 11:50:06;;;;;;;4.30;1.20;;;23.40;99.90;;;;;;5130859;27;20038;-55
2023/07/19 11:52:46;;;;;;;4.93;1.20;;;23.00;99.90;;;;;;5131758;27;20495;-54
2023/07/19 11:55:16;;;;;;;8.13;1.52;;;22.70;99.90;;;;;;5130491;27;20460;-54
2023/07/19 11:57:43;;;;;;;5.38;1.58;;;22.40;99.90;;;;;;5129603;27;20046;-55
2023/07/19 12:00:10;;;;;;;2.72;0.90;;;22.70;99.90;;;;;;5131143;27;20050;-54
2023/07/19 12:02:37;;;;;;;2.97;1.17;;;22.60;99.90;;;;;;5129951;27;20045;-55
2023/07/19 12:05:04;;;;;;;6.28;1.20;;;22.60;99.90;;;;;;5129337;27;20504;-55
2023/07/19 12:07:31;;;;;;;3.17;1.20;;;22.40;99.90;;;;;;5129638;27;20488;-55
2023/07/19 12:09:57;;;;;;;3.45;1.00;;;22.40;99.90;;;;;;5130472;27;24064;-56
2023/07/19 12:12:23;;;;;;;5.07;1.45;;;22.10;99.90;;;;;;5130581;27;20047;-55
2023/07/19 12:14:49;;;;;;;3.53;1.02;;;21.80;99.90;;;;;;5129363;27;20423;-56
2023/07/19 12:17:15;;;;;;;3.70;1.25;;;21.40;99.90;;;;;;5129115;27;20043;-55
2023/07/19 12:19:40;;;;;;;3.40;1.15;;;21.30;99.90;;;;;;5130665;27;20129;-55
2023/07/19 12:22:06;;;;;;;3.00;1.05;;;21.10;99.90;;;;;;5132524;27;20034;-55
2023/07/19 12:24:32;;;;;;;5.43;1.20;;;20.80;99.90;;;;;;5131923;27;20101;-55
2023/07/19 12:26:57;;;;;;;4.50;1.02;;;20.80;99.90;;;;;;5132766;27;20065;-55
2023/07/19 12:29:25;;;;;;;4.95;1.15;;;21.10;99.90;;;;;;5134894;27;20058;-53
2023/07/19 12:31:51;;;;;;;2.28;0.80;;;20.70;99.90;;;;;;5132379;27;20158;-54
2023/07/19 12:34:20;;;;;;;6.20;1.17;;;20.80;99.90;;;;;;5131620;27;20129;-56
2023/07/19 12:36:47;;;;;;;4.15;0.98;;;20.80;99.90;;;;;;5131934;27;20043;-56
2023/07/19 12:39:14;;;;;;;3.67;0.90;;;21.10;99.90;;;;;;5134077;27;20082;-55
2023/07/19 12:41:40;;;;;;;3.75;1.10;;;21.60;99.90;;;;;;5133705;27;20046;-56
2023/07/19 12:44:06;;;;;;;3.70;0.82;;;21.90;99.90;;;;;;5132261;27;20097;-56